sensor_id;sensor_type;location;lat;lon;timestamp;pressure;altitude;pressure_sealevel;temperature;humidity
54920;BME280;63804;53.120;8.764;2022-09-25T00:01:19;101407.06;;;14.22;53.69
54920;BME280;63804;53.120;8.764;2022-09-25T00:03:46;101405.22;;;14.27;53.76
54920;BME280;63804;53.120;8.764;2022-09-25T00:06:20;101409.00;;;14.22;53.63
54920;BME280;63804;53.120;8.764;2022-09-25T00:08:46;101405.84;;;14.20;53.92
54920;BME280;63804;53.120;8.764;2022-09-25T00:11:18;101410.41;;;14.16;54.04
54920;BME280;63804;53.120;8.764;2022-09-25T00:13:44;101417.84;;;14.15;54.05
54920;BME280;63804;53.120;8.764;2022-09-25T00:16:13;101414.75;;;14.17;53.83
54920;BME280;63804;53.120;8.764;2022-09-25T00:18:38;101407.13;;;14.10;54.12
54920;BME280;63804;53.120;8.764;2022-09-25T00:21:23;101404.91;;;14.16;53.94
54920;BME280;63804;53.120;8.764;2022-09-25T00:23:53;101401.47;;;14.19;53.98
54920;BME280;63804;53.120;8.764;2022-09-25T00:26:19;101403.53;;;14.22;53.79
54920;BME280;63804;53.120;8.764;2022-09-25T00:28:45;101409.19;;;14.29;53.71
54920;BME280;63804;53.120;8.764;2022-09-25T00:31:11;101409.09;;;14.25;53.65
54920;BME280;63804;53.120;8.764;2022-09-25T00:33:42;101400.78;;;14.22;53.86
54920;BME280;63804;53.120;8.764;2022-09-25T00:36:08;101405.13;;;14.23;53.95
54920;BME280;63804;53.120;8.764;2022-09-25T00:38:36;101402.75;;;14.21;53.99
54920;BME280;63804;53.120;8.764;2022-09-25T00:41:04;101414.41;;;14.18;54.00
54920;BME280;63804;53.120;8.764;2022-09-25T00:43:42;101401.13;;;14.20;54.16
54920;BME280;63804;53.120;8.764;2022-09-25T00:46:17;101401.56;;;14.22;54.06
54920;BME280;63804;53.120;8.764;2022-09-25T00:48:49;101403.19;;;14.23;54.11
54920;BME280;63804;53.120;8.764;2022-09-25T00:51:18;101402.25;;;14.19;54.06
54920;BME280;63804;53.120;8.764;2022-09-25T00:53:45;101409.19;;;14.13;54.29
54920;BME280;63804;53.120;8.764;2022-09-25T00:56:11;101402.53;;;14.14;54.19
54920;BME280;63804;53.120;8.764;2022-09-25T00:58:39;101405.56;;;14.25;54.00
54920;BME280;63804;53.120;8.764;2022-09-25T01:01:06;101407.41;;;14.21;54.22
54920;BME280;63804;53.120;8.764;2022-09-25T01:03:32;101415.47;;;14.14;54.51
54920;BME280;63804;53.120;8.764;2022-09-25T01:05:59;101412.97;;;14.09;54.69
54920;BME280;63804;53.120;8.764;2022-09-25T01:08:26;101417.50;;;14.17;54.29
54920;BME280;63804;53.120;8.764;2022-09-25T01:10:52;101409.38;;;14.20;54.35
54920;BME280;63804;53.120;8.764;2022-09-25T01:13:19;101413.03;;;14.24;54.10
54920;BME280;63804;53.120;8.764;2022-09-25T01:18:44;101406.63;;;14.20;54.19
54920;BME280;63804;53.120;8.764;2022-09-25T01:24:08;101405.84;;;14.20;54.29
54920;BME280;63804;53.120;8.764;2022-09-25T01:32:11;101400.53;;;14.27;54.10
54920;BME280;63804;53.120;8.764;2022-09-25T01:34:55;101400.09;;;14.25;54.30
54920;BME280;63804;53.120;8.764;2022-09-25T01:37:49;101397.78;;;14.27;54.19
54920;BME280;63804;53.120;8.764;2022-09-25T01:43:11;101403.09;;;14.20;54.71
54920;BME280;63804;53.120;8.764;2022-09-25T01:45:40;101406.72;;;14.24;54.28
54920;BME280;63804;53.120;8.764;2022-09-25T01:48:08;101403.91;;;14.36;54.21
54920;BME280;63804;53.120;8.764;2022-09-25T01:50:48;101399.22;;;14.37;54.30
54920;BME280;63804;53.120;8.764;2022-09-25T01:53:20;101402.91;;;14.29;54.50
54920;BME280;63804;53.120;8.764;2022-09-25T01:56:01;101399.81;;;14.30;54.35
54920;BME280;63804;53.120;8.764;2022-09-25T01:58:33;101408.06;;;14.30;54.31
54920;BME280;63804;53.120;8.764;2022-09-25T02:01:25;101401.78;;;14.30;54.56
54920;BME280;63804;53.120;8.764;2022-09-25T02:04:02;101403.00;;;14.32;54.42
54920;BME280;63804;53.120;8.764;2022-09-25T02:06:31;101403.91;;;14.36;54.37
54920;BME280;63804;53.120;8.764;2022-09-25T02:09:09;101401.88;;;14.33;54.65
54920;BME280;63804;53.120;8.764;2022-09-25T02:11:50;101407.16;;;14.26;54.41
54920;BME280;63804;53.120;8.764;2022-09-25T02:14:22;101404.41;;;14.26;54.51
54920;BME280;63804;53.120;8.764;2022-09-25T02:16:53;101406.00;;;14.27;54.15
54920;BME280;63804;53.120;8.764;2022-09-25T02:19:20;101403.97;;;14.24;54.45
54920;BME280;63804;53.120;8.764;2022-09-25T02:22:17;101408.31;;;14.25;54.62
54920;BME280;63804;53.120;8.764;2022-09-25T02:24:52;101415.38;;;14.26;54.42
54920;BME280;63804;53.120;8.764;2022-09-25T02:27:21;101407.28;;;14.30;54.45
54920;BME280;63804;53.120;8.764;2022-09-25T02:29:49;101399.81;;;14.30;54.42
54920;BME280;63804;53.120;8.764;2022-09-25T02:32:17;101404.63;;;14.33;54.05
54920;BME280;63804;53.120;8.764;2022-09-25T02:34:44;101400.59;;;14.31;53.94
54920;BME280;63804;53.120;8.764;2022-09-25T02:37:15;101397.34;;;14.25;54.26
54920;BME280;63804;53.120;8.764;2022-09-25T02:39:43;101404.41;;;14.26;54.45
54920;BME280;63804;53.120;8.764;2022-09-25T02:53:42;101398.69;;;14.31;54.38
54920;BME280;63804;53.120;8.764;2022-09-25T02:58:50;101395.94;;;14.31;54.36
54920;BME280;63804;53.120;8.764;2022-09-25T03:01:19;101398.78;;;14.35;54.36
54920;BME280;63804;53.120;8.764;2022-09-25T03:03:49;101390.63;;;14.38;54.07
54920;BME280;63804;53.120;8.764;2022-09-25T03:06:16;101399.28;;;14.40;54.33
54920;BME280;63804;53.120;8.764;2022-09-25T03:08:47;101406.41;;;14.41;54.25
54920;BME280;63804;53.120;8.764;2022-09-25T03:11:17;101396.72;;;14.32;54.62
54920;BME280;63804;53.120;8.764;2022-09-25T03:13:44;101403.00;;;14.32;54.62
54920;BME280;63804;53.120;8.764;2022-09-25T03:18:39;101397.50;;;14.32;54.45
54920;BME280;63804;53.120;8.764;2022-09-25T03:21:05;101399.38;;;14.28;54.51
54920;BME280;63804;53.120;8.764;2022-09-25T03:23:30;101392.72;;;14.29;54.70
54920;BME280;63804;53.120;8.764;2022-09-25T03:25:57;101389.53;;;14.27;54.37
54920;BME280;63804;53.120;8.764;2022-09-25T03:28:23;101391.50;;;14.27;54.61
54920;BME280;63804;53.120;8.764;2022-09-25T03:30:57;101385.91;;;14.23;54.61
54920;BME280;63804;53.120;8.764;2022-09-25T03:33:22;101395.19;;;14.18;54.52
54920;BME280;63804;53.120;8.764;2022-09-25T03:35:59;101397.69;;;14.23;54.68
54920;BME280;63804;53.120;8.764;2022-09-25T03:38:24;101389.44;;;14.23;54.74
54920;BME280;63804;53.120;8.764;2022-09-25T03:40:50;101394.16;;;14.23;54.53
54920;BME280;63804;53.120;8.764;2022-09-25T03:43:15;101387.69;;;14.31;54.33
54920;BME280;63804;53.120;8.764;2022-09-25T03:45:41;101395.72;;;14.24;54.61
54920;BME280;63804;53.120;8.764;2022-09-25T03:48:06;101393.34;;;14.22;54.75
54920;BME280;63804;53.120;8.764;2022-09-25T03:50:32;101387.06;;;14.22;54.59
54920;BME280;63804;53.120;8.764;2022-09-25T03:52:57;101387.13;;;14.25;54.44
54920;BME280;63804;53.120;8.764;2022-09-25T03:55:23;101387.75;;;14.19;54.68
54920;BME280;63804;53.120;8.764;2022-09-25T03:57:50;101388.91;;;14.18;54.67
54920;BME280;63804;53.120;8.764;2022-09-25T04:00:16;101386.88;;;14.15;54.90
54920;BME280;63804;53.120;8.764;2022-09-25T04:02:42;101385.19;;;14.10;54.78
54920;BME280;63804;53.120;8.764;2022-09-25T04:05:08;101379.59;;;14.06;54.70
54920;BME280;63804;53.120;8.764;2022-09-25T04:07:34;101382.78;;;14.09;54.65
54920;BME280;63804;53.120;8.764;2022-09-25T04:10:00;101381.63;;;14.10;54.72
54920;BME280;63804;53.120;8.764;2022-09-25T04:12:25;101377.38;;;14.12;54.64
54920;BME280;63804;53.120;8.764;2022-09-25T04:14:51;101385.53;;;14.09;54.64
54920;BME280;63804;53.120;8.764;2022-09-25T04:17:17;101377.47;;;14.00;54.66
54920;BME280;63804;53.120;8.764;2022-09-25T04:19:42;101373.81;;;13.96;54.86
54920;BME280;63804;53.120;8.764;2022-09-25T04:22:08;101378.50;;;13.95;54.99
54920;BME280;63804;53.120;8.764;2022-09-25T04:24:33;101376.88;;;13.94;54.77
54920;BME280;63804;53.120;8.764;2022-09-25T04:27:16;101372.13;;;13.91;54.67
54920;BME280;63804;53.120;8.764;2022-09-25T04:29:44;101382.19;;;13.87;54.81
54920;BME280;63804;53.120;8.764;2022-09-25T04:32:09;101387.06;;;13.94;54.50
54920;BME280;63804;53.120;8.764;2022-09-25T04:34:53;101388.69;;;13.95;54.56
54920;BME280;63804;53.120;8.764;2022-09-25T04:37:19;101384.09;;;13.99;54.08
54920;BME280;63804;53.120;8.764;2022-09-25T04:39:47;101390.34;;;13.99;54.25
54920;BME280;63804;53.120;8.764;2022-09-25T04:42:14;101390.00;;;14.01;54.22
54920;BME280;63804;53.120;8.764;2022-09-25T04:44:39;101392.88;;;14.04;53.84
54920;BME280;63804;53.120;8.764;2022-09-25T04:47:05;101386.66;;;14.07;53.92
54920;BME280;63804;53.120;8.764;2022-09-25T04:49:30;101387.13;;;14.10;53.79
54920;BME280;63804;53.120;8.764;2022-09-25T04:51:56;101374.38;;;14.01;54.01
54920;BME280;63804;53.120;8.764;2022-09-25T04:54:21;101386.28;;;13.93;54.32
54920;BME280;63804;53.120;8.764;2022-09-25T04:56:47;101382.97;;;13.87;54.46
54920;BME280;63804;53.120;8.764;2022-09-25T04:59:12;101386.06;;;13.86;54.48
54920;BME280;63804;53.120;8.764;2022-09-25T05:01:40;101378.56;;;13.83;54.50
54920;BME280;63804;53.120;8.764;2022-09-25T05:04:06;101380.38;;;13.79;54.34
54920;BME280;63804;53.120;8.764;2022-09-25T05:06:31;101376.75;;;13.75;54.40
54920;BME280;63804;53.120;8.764;2022-09-25T05:08:57;101383.38;;;13.74;54.45
54920;BME280;63804;53.120;8.764;2022-09-25T05:11:23;101379.47;;;13.75;54.44
54920;BME280;63804;53.120;8.764;2022-09-25T05:13:50;101381.75;;;13.73;54.45
54920;BME280;63804;53.120;8.764;2022-09-25T05:16:16;101379.97;;;13.64;54.51
54920;BME280;63804;53.120;8.764;2022-09-25T05:18:41;101372.19;;;13.66;54.35
54920;BME280;63804;53.120;8.764;2022-09-25T05:21:07;101376.06;;;13.65;54.40
54920;BME280;63804;53.120;8.764;2022-09-25T05:23:32;101369.00;;;13.64;54.35
54920;BME280;63804;53.120;8.764;2022-09-25T05:25:58;101372.78;;;13.60;54.47
54920;BME280;63804;53.120;8.764;2022-09-25T05:28:32;101373.38;;;13.53;54.66
54920;BME280;63804;53.120;8.764;2022-09-25T05:31:01;101380.09;;;13.56;54.62
54920;BME280;63804;53.120;8.764;2022-09-25T05:33:28;101373.28;;;13.49;54.73
54920;BME280;63804;53.120;8.764;2022-09-25T05:35:54;101374.75;;;13.47;54.76
54920;BME280;63804;53.120;8.764;2022-09-25T05:38:19;101377.16;;;13.48;54.75
54920;BME280;63804;53.120;8.764;2022-09-25T05:40:45;101381.03;;;13.47;54.84
54920;BME280;63804;53.120;8.764;2022-09-25T05:43:10;101381.41;;;13.33;55.25
54920;BME280;63804;53.120;8.764;2022-09-25T05:45:36;101383.03;;;13.35;55.15
54920;BME280;63804;53.120;8.764;2022-09-25T05:48:06;101380.84;;;13.40;55.03
54920;BME280;63804;53.120;8.764;2022-09-25T05:50:33;101384.13;;;13.46;54.84
54920;BME280;63804;53.120;8.764;2022-09-25T05:53:04;101399.69;;;13.42;54.71
54920;BME280;63804;53.120;8.764;2022-09-25T05:55:30;101386.31;;;13.40;54.61
54920;BME280;63804;53.120;8.764;2022-09-25T05:58:00;101390.56;;;13.38;54.57
54920;BME280;63804;53.120;8.764;2022-09-25T06:00:25;101385.97;;;13.42;54.37
54920;BME280;63804;53.120;8.764;2022-09-25T06:02:52;101387.09;;;13.41;54.41
54920;BME280;63804;53.120;8.764;2022-09-25T06:05:17;101389.53;;;13.30;54.21
54920;BME280;63804;53.120;8.764;2022-09-25T06:07:43;101390.56;;;13.25;54.54
54920;BME280;63804;53.120;8.764;2022-09-25T06:10:09;101383.63;;;13.28;54.37
54920;BME280;63804;53.120;8.764;2022-09-25T06:12:35;101396.97;;;13.29;54.26
54920;BME280;63804;53.120;8.764;2022-09-25T06:15:00;101388.88;;;13.21;54.55
54920;BME280;63804;53.120;8.764;2022-09-25T06:17:26;101389.00;;;13.24;54.17
54920;BME280;63804;53.120;8.764;2022-09-25T06:19:51;101386.34;;;13.15;54.44
54920;BME280;63804;53.120;8.764;2022-09-25T06:22:17;101392.19;;;13.26;54.25
54920;BME280;63804;53.120;8.764;2022-09-25T06:24:42;101391.25;;;13.22;54.16
54920;BME280;63804;53.120;8.764;2022-09-25T06:27:08;101391.06;;;13.15;54.18
54920;BME280;63804;53.120;8.764;2022-09-25T06:29:34;101393.09;;;13.18;54.21
54920;BME280;63804;53.120;8.764;2022-09-25T06:32:00;101399.03;;;13.20;54.19
54920;BME280;63804;53.120;8.764;2022-09-25T06:34:26;101394.25;;;13.17;53.94
54920;BME280;63804;53.120;8.764;2022-09-25T06:36:53;101397.91;;;13.21;54.04
54920;BME280;63804;53.120;8.764;2022-09-25T06:39:18;101399.03;;;13.20;54.10
54920;BME280;63804;53.120;8.764;2022-09-25T06:41:44;101399.97;;;13.24;53.84
54920;BME280;63804;53.120;8.764;2022-09-25T06:44:09;101390.56;;;13.25;53.87
54920;BME280;63804;53.120;8.764;2022-09-25T06:46:35;101394.94;;;13.26;53.94
54920;BME280;63804;53.120;8.764;2022-09-25T06:49:01;101393.75;;;13.27;54.04
54920;BME280;63804;53.120;8.764;2022-09-25T06:51:26;101394.59;;;13.28;53.88
54920;BME280;63804;53.120;8.764;2022-09-25T06:53:57;101386.69;;;13.26;53.86
54920;BME280;63804;53.120;8.764;2022-09-25T06:56:23;101402.47;;;13.29;53.98
54920;BME280;63804;53.120;8.764;2022-09-25T06:58:49;101395.91;;;13.34;53.89
54920;BME280;63804;53.120;8.764;2022-09-25T07:01:15;101393.50;;;13.45;53.72
54920;BME280;63804;53.120;8.764;2022-09-25T07:03:40;101393.97;;;13.47;53.88
54920;BME280;63804;53.120;8.764;2022-09-25T07:06:17;101398.41;;;13.51;53.96
54920;BME280;63804;53.120;8.764;2022-09-25T07:08:44;101398.50;;;13.55;53.91
54920;BME280;63804;53.120;8.764;2022-09-25T07:11:23;101404.75;;;13.68;53.84
54920;BME280;63804;53.120;8.764;2022-09-25T07:13:49;101402.03;;;13.68;53.88
54920;BME280;63804;53.120;8.764;2022-09-25T07:16:21;101404.66;;;13.64;53.99
54920;BME280;63804;53.120;8.764;2022-09-25T07:18:47;101406.56;;;13.76;53.70
54920;BME280;63804;53.120;8.764;2022-09-25T07:21:18;101400.00;;;13.81;53.62
54920;BME280;63804;53.120;8.764;2022-09-25T07:23:46;101406.00;;;13.83;53.99
54920;BME280;63804;53.120;8.764;2022-09-25T07:26:20;101408.03;;;13.86;53.74
54920;BME280;63804;53.120;8.764;2022-09-25T07:28:51;101406.97;;;13.91;53.78
54920;BME280;63804;53.120;8.764;2022-09-25T07:31:19;101409.13;;;13.97;53.79
54920;BME280;63804;53.120;8.764;2022-09-25T07:33:46;101403.72;;;14.01;53.94
54920;BME280;63804;53.120;8.764;2022-09-25T07:36:13;101397.56;;;14.04;53.74
54920;BME280;63804;53.120;8.764;2022-09-25T07:38:40;101406.34;;;14.10;53.79
54920;BME280;63804;53.120;8.764;2022-09-25T07:41:08;101411.56;;;14.15;53.56
54920;BME280;63804;53.120;8.764;2022-09-25T07:43:35;101402.53;;;14.14;53.67
54920;BME280;63804;53.120;8.764;2022-09-25T07:46:03;101405.31;;;14.30;53.48
54920;BME280;63804;53.120;8.764;2022-09-25T07:48:29;101405.13;;;14.23;53.62
54920;BME280;63804;53.120;8.764;2022-09-25T07:51:01;101408.13;;;14.18;53.20
54920;BME280;63804;53.120;8.764;2022-09-25T07:53:27;101404.53;;;14.30;53.15
54920;BME280;63804;53.120;8.764;2022-09-25T07:55:57;101395.94;;;14.31;53.12
54920;BME280;63804;53.120;8.764;2022-09-25T07:58:23;101401.69;;;14.42;52.92
54920;BME280;63804;53.120;8.764;2022-09-25T08:00:50;101397.81;;;14.43;52.80
54920;BME280;63804;53.120;8.764;2022-09-25T08:03:16;101393.63;;;14.49;52.49
54920;BME280;63804;53.120;8.764;2022-09-25T08:05:41;101388.69;;;14.55;52.33
54920;BME280;63804;53.120;8.764;2022-09-25T08:08:07;101396.28;;;14.46;52.68
54920;BME280;63804;53.120;8.764;2022-09-25T08:10:33;101396.84;;;14.51;52.25
54920;BME280;63804;53.120;8.764;2022-09-25T08:12:58;101402.75;;;14.53;52.46
54920;BME280;63804;53.120;8.764;2022-09-25T08:15:30;101403.38;;;14.62;52.45
54920;BME280;63804;53.120;8.764;2022-09-25T08:17:56;101396.91;;;14.71;52.20
54920;BME280;63804;53.120;8.764;2022-09-25T08:20:21;101397.72;;;14.71;51.83
54920;BME280;63804;53.120;8.764;2022-09-25T08:22:47;101395.59;;;14.80;51.61
54920;BME280;63804;53.120;8.764;2022-09-25T08:25:12;101399.25;;;14.85;51.62
54920;BME280;63804;53.120;8.764;2022-09-25T08:27:38;101398.44;;;14.84;51.67
54920;BME280;63804;53.120;8.764;2022-09-25T08:30:09;101396.66;;;14.92;51.69
54920;BME280;63804;53.120;8.764;2022-09-25T08:32:35;101400.75;;;14.98;51.39
54920;BME280;63804;53.120;8.764;2022-09-25T08:35:02;101403.91;;;15.00;51.34
54920;BME280;63804;53.120;8.764;2022-09-25T08:37:28;101401.44;;;14.95;50.99
54920;BME280;63804;53.120;8.764;2022-09-25T08:39:59;101404.91;;;14.92;50.92
54920;BME280;63804;53.120;8.764;2022-09-25T08:42:32;101402.31;;;14.99;50.80
54920;BME280;63804;53.120;8.764;2022-09-25T08:45:02;101395.16;;;15.30;50.22
54920;BME280;63804;53.120;8.764;2022-09-25T08:47:50;101400.53;;;15.42;50.16
54920;BME280;63804;53.120;8.764;2022-09-25T08:50:36;101407.66;;;15.63;49.82
54920;BME280;63804;53.120;8.764;2022-09-25T08:53:13;101397.69;;;15.74;49.39
54920;BME280;63804;53.120;8.764;2022-09-25T08:55:41;101401.31;;;15.78;49.12
54920;BME280;63804;53.120;8.764;2022-09-25T08:58:29;101408.81;;;15.81;49.12
54920;BME280;63804;53.120;8.764;2022-09-25T09:00:58;101402.47;;;15.77;48.72
54920;BME280;63804;53.120;8.764;2022-09-25T09:03:25;101405.78;;;15.86;48.51
54920;BME280;63804;53.120;8.764;2022-09-25T09:06:06;101400.13;;;15.79;47.89
54920;BME280;63804;53.120;8.764;2022-09-25T09:08:37;101406.66;;;15.90;48.23
54920;BME280;63804;53.120;8.764;2022-09-25T09:11:10;101409.63;;;15.82;48.01
54920;BME280;63804;53.120;8.764;2022-09-25T09:13:54;101405.44;;;15.68;48.15
54920;BME280;63804;53.120;8.764;2022-09-25T09:18:47;101399.13;;;15.68;48.08
54920;BME280;63804;53.120;8.764;2022-09-25T09:24:50;101401.69;;;15.77;47.99
54920;BME280;63804;53.120;8.764;2022-09-25T09:27:12;101406.38;;;15.76;47.15
54920;BME280;63804;53.120;8.764;2022-09-25T09:38:00;101399.78;;;16.00;46.58
54920;BME280;63804;53.120;8.764;2022-09-25T09:43:30;101406.78;;;15.98;47.04
54920;BME280;63804;53.120;8.764;2022-09-25T09:52:08;101402.59;;;15.84;46.21
54920;BME280;63804;53.120;8.764;2022-09-25T09:54:46;101402.88;;;15.79;46.26
54920;BME280;63804;53.120;8.764;2022-09-25T09:57:31;101396.31;;;15.84;46.19
54920;BME280;63804;53.120;8.764;2022-09-25T10:00:02;101405.00;;;15.86;46.11
54920;BME280;63804;53.120;8.764;2022-09-25T10:02:37;101408.28;;;16.15;45.35
54920;BME280;63804;53.120;8.764;2022-09-25T10:05:08;101408.91;;;16.27;45.48
54920;BME280;63804;53.120;8.764;2022-09-25T10:07:39;101394.56;;;16.18;45.68
54920;BME280;63804;53.120;8.764;2022-09-25T10:10:12;101388.34;;;16.21;45.92
54920;BME280;63804;53.120;8.764;2022-09-25T10:12:45;101393.00;;;16.17;46.12
54920;BME280;63804;53.120;8.764;2022-09-25T10:15:34;101390.13;;;16.10;46.09
54920;BME280;63804;53.120;8.764;2022-09-25T10:18:02;101393.91;;;16.25;45.66
54920;BME280;63804;53.120;8.764;2022-09-25T10:20:35;101390.25;;;16.40;45.44
54920;BME280;63804;53.120;8.764;2022-09-25T10:23:03;101387.56;;;16.44;45.43
54920;BME280;63804;53.120;8.764;2022-09-25T10:25:38;101386.63;;;16.36;45.66
54920;BME280;63804;53.120;8.764;2022-09-25T10:28:28;101394.16;;;16.39;45.18
54920;BME280;63804;53.120;8.764;2022-09-25T10:30:54;101387.38;;;16.33;45.73
54920;BME280;63804;53.120;8.764;2022-09-25T10:33:23;101395.94;;;16.28;46.13
54920;BME280;63804;53.120;8.764;2022-09-25T10:35:50;101386.09;;;16.27;45.70
54920;BME280;63804;53.120;8.764;2022-09-25T10:41:12;101393.53;;;16.26;45.36
54920;BME280;63804;53.120;8.764;2022-09-25T10:44:08;101392.41;;;16.27;45.21
54920;BME280;63804;53.120;8.764;2022-09-25T10:46:43;101393.91;;;16.25;45.56
54920;BME280;63804;53.120;8.764;2022-09-25T10:49:27;101394.31;;;16.23;45.53
54920;BME280;63804;53.120;8.764;2022-09-25T10:52:14;101400.66;;;16.27;45.62
54920;BME280;63804;53.120;8.764;2022-09-25T10:54:40;101388.59;;;16.36;45.31
54920;BME280;63804;53.120;8.764;2022-09-25T10:57:32;101394.13;;;16.36;45.77
54920;BME280;63804;53.120;8.764;2022-09-25T11:00:08;101392.94;;;16.14;46.40
54920;BME280;63804;53.120;8.764;2022-09-25T11:02:44;101406.94;;;16.05;46.45
54920;BME280;63804;53.120;8.764;2022-09-25T11:05:25;101396.38;;;15.87;48.11
54920;BME280;63804;53.120;8.764;2022-09-25T11:07:56;101404.59;;;15.48;48.68
54920;BME280;63804;53.120;8.764;2022-09-25T11:10:48;101414.78;;;15.28;50.10
54920;BME280;63804;53.120;8.764;2022-09-25T11:13:22;101412.59;;;15.18;50.18
54920;BME280;63804;53.120;8.764;2022-09-25T11:15:52;101409.44;;;15.20;51.31
54920;BME280;63804;53.120;8.764;2022-09-25T11:18:50;101413.81;;;15.21;50.78
54920;BME280;63804;53.120;8.764;2022-09-25T11:21:47;101408.47;;;15.28;49.99
54920;BME280;63804;53.120;8.764;2022-09-25T11:24:26;101406.91;;;15.46;49.34
54920;BME280;63804;53.120;8.764;2022-09-25T11:32:26;101400.38;;;15.54;49.49
54920;BME280;63804;53.120;8.764;2022-09-25T11:35:00;101393.19;;;15.66;49.23
54920;BME280;63804;53.120;8.764;2022-09-25T11:37:38;101388.72;;;15.61;49.58
54920;BME280;63804;53.120;8.764;2022-09-25T11:43:16;101400.66;;;15.65;49.62
54920;BME280;63804;53.120;8.764;2022-09-25T11:45:55;101395.53;;;15.83;49.25
54920;BME280;63804;53.120;8.764;2022-09-25T11:48:32;101398.09;;;15.96;49.23
54920;BME280;63804;53.120;8.764;2022-09-25T11:51:31;101393.31;;;15.92;49.16
54920;BME280;63804;53.120;8.764;2022-09-25T11:57:23;101385.06;;;15.92;49.00
54920;BME280;63804;53.120;8.764;2022-09-25T12:00:13;101386.38;;;15.99;48.29
54920;BME280;63804;53.120;8.764;2022-09-25T12:05:33;101380.06;;;15.98;48.66
54920;BME280;63804;53.120;8.764;2022-09-25T12:16:25;101363.03;;;15.92;48.95
54920;BME280;63804;53.120;8.764;2022-09-25T12:19:12;101359.53;;;16.15;48.43
54920;BME280;63804;53.120;8.764;2022-09-25T12:21:48;101360.13;;;16.28;48.67
54920;BME280;63804;53.120;8.764;2022-09-25T12:27:26;101347.13;;;16.48;48.36
54920;BME280;63804;53.120;8.764;2022-09-25T12:30:19;101341.03;;;16.39;47.84
54920;BME280;63804;53.120;8.764;2022-09-25T12:35:53;101334.59;;;16.08;47.51
54920;BME280;63804;53.120;8.764;2022-09-25T12:38:37;101331.31;;;15.99;48.05
54920;BME280;63804;53.120;8.764;2022-09-25T12:41:38;101332.16;;;16.03;47.64
54920;BME280;63804;53.120;8.764;2022-09-25T12:46:53;101340.97;;;16.12;48.18
54920;BME280;63804;53.120;8.764;2022-09-25T12:49:27;101338.75;;;16.21;47.52
54920;BME280;63804;53.120;8.764;2022-09-25T12:52:01;101335.09;;;16.14;48.06
54920;BME280;63804;53.120;8.764;2022-09-25T12:54:35;101322.81;;;16.07;48.20
54920;BME280;63804;53.120;8.764;2022-09-25T12:59:50;101325.44;;;16.23;47.62
54920;BME280;63804;53.120;8.764;2022-09-25T13:02:38;101323.84;;;16.22;47.97
54920;BME280;63804;53.120;8.764;2022-09-25T13:10:41;101316.97;;;16.36;46.43
54920;BME280;63804;53.120;8.764;2022-09-25T13:13:12;101316.66;;;16.41;46.36
54920;BME280;63804;53.120;8.764;2022-09-25T13:15:46;101316.72;;;16.44;46.07
54920;BME280;63804;53.120;8.764;2022-09-25T13:18:19;101310.00;;;16.42;46.22
54920;BME280;63804;53.120;8.764;2022-09-25T13:20:56;101312.31;;;16.40;45.98
54920;BME280;63804;53.120;8.764;2022-09-25T13:25:59;101307.56;;;16.37;45.12
54920;BME280;63804;53.120;8.764;2022-09-25T13:28:32;101307.66;;;16.44;44.03
54920;BME280;63804;53.120;8.764;2022-09-25T13:33:35;101296.03;;;16.54;42.56
54920;BME280;63804;53.120;8.764;2022-09-25T13:36:17;101289.81;;;16.57;43.17
54920;BME280;63804;53.120;8.764;2022-09-25T13:38:57;101290.63;;;16.61;43.09
54920;BME280;63804;53.120;8.764;2022-09-25T13:41:56;101293.06;;;16.67;42.40
54920;BME280;63804;53.120;8.764;2022-09-25T13:47:37;101292.97;;;16.59;41.69
54920;BME280;63804;53.120;8.764;2022-09-25T14:00:23;101299.44;;;16.71;42.32
54920;BME280;63804;53.120;8.764;2022-09-25T14:02:52;101291.81;;;16.87;41.51
54920;BME280;63804;53.120;8.764;2022-09-25T14:05:26;101289.41;;;16.86;41.35
54920;BME280;63804;53.120;8.764;2022-09-25T14:08:13;101285.22;;;16.95;41.39
54920;BME280;63804;53.120;8.764;2022-09-25T14:10:43;101288.16;;;17.10;41.72
54920;BME280;63804;53.120;8.764;2022-09-25T14:13:11;101287.97;;;16.95;41.62
54920;BME280;63804;53.120;8.764;2022-09-25T14:15:38;101278.88;;;16.95;41.98
54920;BME280;63804;53.120;8.764;2022-09-25T14:18:07;101284.06;;;16.70;42.51
54920;BME280;63804;53.120;8.764;2022-09-25T14:20:38;101272.66;;;16.71;42.13
54920;BME280;63804;53.120;8.764;2022-09-25T14:25:37;101266.66;;;16.92;41.83
54920;BME280;63804;53.120;8.764;2022-09-25T14:28:42;101263.69;;;17.08;41.26
54920;BME280;63804;53.120;8.764;2022-09-25T14:47:59;101239.91;;;16.96;40.80
54920;BME280;63804;53.120;8.764;2022-09-25T14:50:36;101238.28;;;16.61;40.71
54920;BME280;63804;53.120;8.764;2022-09-25T14:53:11;101251.31;;;16.64;40.59
54920;BME280;63804;53.120;8.764;2022-09-25T14:55:43;101250.91;;;16.62;41.05
54920;BME280;63804;53.120;8.764;2022-09-25T14:58:15;101243.72;;;16.84;40.26
54920;BME280;63804;53.120;8.764;2022-09-25T15:00:48;101225.47;;;17.07;39.98
54920;BME280;63804;53.120;8.764;2022-09-25T15:03:15;101224.09;;;17.24;39.42
54920;BME280;63804;53.120;8.764;2022-09-25T15:05:48;101229.81;;;17.08;40.35
54920;BME280;63804;53.120;8.764;2022-09-25T15:08:36;101224.63;;;17.02;39.70
54920;BME280;63804;53.120;8.764;2022-09-25T15:11:16;101216.84;;;17.12;39.84
54920;BME280;63804;53.120;8.764;2022-09-25T15:13:43;101223.28;;;17.23;38.82
54920;BME280;63804;53.120;8.764;2022-09-25T15:16:13;101223.81;;;17.32;38.94
54920;BME280;63804;53.120;8.764;2022-09-25T15:18:59;101223.00;;;17.32;38.93
54920;BME280;63804;53.120;8.764;2022-09-25T15:21:28;101223.47;;;17.37;39.00
54920;BME280;63804;53.120;8.764;2022-09-25T15:24:00;101230.13;;;17.33;38.34
54920;BME280;63804;53.120;8.764;2022-09-25T15:26:28;101226.63;;;17.36;38.28